createdAt,value
2023-03-12T00:00:06.808Z,0.48
2023-03-12T00:02:08.428Z,0.49
2023-03-12T00:04:09.980Z,0.40
2023-03-12T00:06:11.966Z,0.30
2023-03-12T00:08:13.859Z,0.48
2023-03-12T00:10:15.265Z,0.56
2023-03-12T00:12:16.821Z,0.60
2023-03-12T00:14:18.434Z,0.51
2023-03-12T00:16:21.098Z,0.61
2023-03-12T00:18:22.758Z,0.61
2023-03-12T00:20:24.309Z,0.70
2023-03-12T00:22:25.828Z,0.84
2023-03-12T00:24:27.468Z,0.54
2023-03-12T00:26:29.106Z,0.60
2023-03-12T00:28:30.975Z,0.66
2023-03-12T00:30:32.557Z,0.76
2023-03-12T00:32:35.228Z,0.78
2023-03-12T00:34:36.685Z,0.76
2023-03-12T00:36:38.464Z,0.72
2023-03-12T00:38:40.059Z,0.67
2023-03-12T00:40:41.479Z,0.74
2023-03-12T00:42:43.167Z,0.79
2023-03-12T00:44:44.918Z,0.68
2023-03-12T00:46:46.523Z,0.79
2023-03-12T00:48:48.292Z,0.91
2023-03-12T00:50:49.794Z,0.93
2023-03-12T00:52:51.328Z,0.84
2023-03-12T00:54:52.845Z,0.88
2023-03-12T00:56:54.280Z,1.02
2023-03-12T00:58:55.773Z,0.90
2023-03-12T01:00:57.341Z,0.84
2023-03-12T01:02:58.901Z,0.84
2023-03-12T01:05:00.342Z,0.91
2023-03-12T01:07:01.961Z,0.88
2023-03-12T01:09:05.340Z,0.91
2023-03-12T01:11:06.759Z,0.87
2023-03-12T01:13:08.770Z,0.67
2023-03-12T01:15:13.818Z,0.65
2023-03-12T01:17:15.255Z,0.61
2023-03-12T01:19:16.883Z,0.60
2023-03-12T01:21:18.494Z,0.61
2023-03-12T01:23:19.993Z,0.53
2023-03-12T01:25:21.634Z,0.58
2023-03-12T01:27:23.203Z,0.60
2023-03-12T01:29:24.794Z,0.58
2023-03-12T01:31:26.651Z,0.49
2023-03-12T01:33:28.262Z,0.53
2023-03-12T01:35:30.030Z,0.39
2023-03-12T01:37:33.076Z,0.48
2023-03-12T01:39:34.718Z,0.56
2023-03-12T01:41:36.338Z,0.51
2023-03-12T01:43:39.891Z,0.40
2023-03-12T01:45:59.964Z,0.50
2023-03-12T01:48:01.520Z,0.45
2023-03-12T01:50:03.799Z,0.41
2023-03-12T01:52:09.284Z,0.33
2023-03-12T01:54:28.142Z,0.37
2023-03-12T01:56:34.440Z,0.31
2023-03-12T01:58:40.320Z,0.34
2023-03-12T02:00:41.922Z,0.26
2023-03-12T02:02:44.658Z,0.29
2023-03-12T02:04:46.861Z,0.31
2023-03-12T02:07:14.549Z,0.21
2023-03-12T02:09:17.169Z,0.26
2023-03-12T02:11:18.626Z,0.29
2023-03-12T02:13:20.411Z,0.39
2023-03-12T02:15:22.401Z,0.46
2023-03-12T02:17:24.173Z,0.51
2023-03-12T02:19:48.927Z,0.50
2023-03-12T02:21:50.902Z,0.53
2023-03-12T02:24:00.900Z,0.62
2023-03-12T02:26:05.431Z,0.61
2023-03-12T02:28:10.514Z,0.69
2023-03-12T02:30:14.227Z,0.73
2023-03-12T02:32:23.220Z,0.68
2023-03-12T02:34:24.697Z,0.67
2023-03-12T02:36:27.138Z,0.89
2023-03-12T02:38:47.977Z,0.96
2023-03-12T02:40:51.174Z,0.95
2023-03-12T02:42:54.230Z,0.69
2023-03-12T02:44:55.836Z,0.82
2023-03-12T02:47:01.288Z,1.00
2023-03-12T02:49:03.588Z,0.83
2023-03-12T02:51:05.374Z,0.89
2023-03-12T02:53:07.054Z,0.86
2023-03-12T02:55:09.032Z,1.00
2023-03-12T02:57:10.546Z,0.84
2023-03-12T02:59:12.939Z,0.98
2023-03-12T03:01:14.406Z,0.99
2023-03-12T03:03:16.027Z,0.95
2023-03-12T03:05:17.819Z,1.02
2023-03-12T03:07:19.254Z,0.89
2023-03-12T03:09:20.859Z,0.94
2023-03-12T03:11:22.496Z,1.02
2023-03-12T03:13:23.918Z,0.89
2023-03-12T03:15:25.820Z,0.85
2023-03-12T03:17:29.101Z,0.93
2023-03-12T03:19:30.569Z,1.05
2023-03-12T03:21:32.669Z,0.98
2023-03-12T03:23:35.012Z,0.96
2023-03-12T03:25:36.441Z,0.92
2023-03-12T03:27:38.057Z,0.96
2023-03-12T03:29:40.004Z,0.89
2023-03-12T03:31:41.441Z,1.15
2023-03-12T03:33:43.852Z,1.10
2023-03-12T03:35:45.461Z,1.13
2023-03-12T03:37:46.874Z,1.12
2023-03-12T03:39:48.451Z,0.99
2023-03-12T03:41:50.053Z,0.98
2023-03-12T03:43:51.476Z,1.00
2023-03-12T03:46:05.162Z,1.05
2023-03-12T03:48:07.021Z,1.07
2023-03-12T03:50:09.156Z,1.13
2023-03-12T03:52:10.831Z,1.13
2023-03-12T03:54:12.658Z,1.02
2023-03-12T03:56:16.124Z,1.02
2023-03-12T03:58:17.744Z,1.01
2023-03-12T04:00:19.724Z,1.09
2023-03-12T04:02:21.251Z,1.14
2023-03-12T04:04:22.812Z,1.14
2023-03-12T04:06:24.403Z,1.10
2023-03-12T04:08:26.011Z,1.19
2023-03-12T04:10:27.582Z,1.09
2023-03-12T04:12:29.098Z,1.12
2023-03-12T04:14:30.552Z,1.06
2023-03-12T04:16:32.072Z,1.02
2023-03-12T04:18:34.273Z,1.04
2023-03-12T04:20:35.684Z,1.05
2023-03-12T04:22:37.665Z,1.08
2023-03-12T04:24:39.334Z,1.13
2023-03-12T04:26:41.012Z,1.04
2023-03-12T04:28:42.675Z,1.12
2023-03-12T04:30:44.483Z,0.94
2023-03-12T04:32:45.955Z,0.88
2023-03-12T04:34:47.678Z,0.90
2023-03-12T04:36:49.686Z,0.57
2023-03-12T04:38:51.195Z,1.02
2023-03-12T04:41:03.176Z,0.93
2023-03-12T04:43:04.771Z,0.94
2023-03-12T04:45:06.888Z,0.89
2023-03-12T04:47:08.528Z,0.95
2023-03-12T04:49:10.390Z,0.89
2023-03-12T04:51:11.796Z,0.92
2023-03-12T04:53:13.460Z,0.93
2023-03-12T04:55:15.013Z,0.99
2023-03-12T04:57:16.855Z,1.01
2023-03-12T04:59:18.625Z,1.02
2023-03-12T05:01:29.344Z,0.96
2023-03-12T05:03:30.873Z,0.95
2023-03-12T05:05:32.426Z,1.03
2023-03-12T05:07:34.597Z,1.07
2023-03-12T05:09:36.159Z,0.96
2023-03-12T05:11:39.702Z,0.97
2023-03-12T05:13:42.331Z,0.98
2023-03-12T05:15:44.711Z,0.96
2023-03-12T05:17:46.232Z,1.01
2023-03-12T05:19:47.884Z,1.13
2023-03-12T05:21:49.315Z,1.06
2023-03-12T05:23:50.874Z,1.07
2023-03-12T05:25:52.600Z,1.14
2023-03-12T05:27:54.056Z,1.14
2023-03-12T05:29:55.598Z,1.05
2023-03-12T05:31:57.246Z,1.04
2023-03-12T05:33:59.374Z,1.10
2023-03-12T05:36:01.298Z,1.34
2023-03-12T05:38:02.929Z,1.23
2023-03-12T05:40:04.894Z,1.14
2023-03-12T05:42:06.649Z,1.18
2023-03-12T05:44:12.350Z,1.06
2023-03-12T05:46:13.911Z,1.25
2023-03-12T05:48:15.915Z,1.13
2023-03-12T05:50:17.652Z,1.23
2023-03-12T05:52:19.061Z,1.32
2023-03-12T05:54:20.983Z,1.30
2023-03-12T05:56:22.541Z,1.25
2023-03-12T05:58:23.924Z,1.26
2023-03-12T06:00:25.706Z,1.44
2023-03-12T06:02:27.501Z,1.44
2023-03-12T06:04:29.272Z,1.59
2023-03-12T06:06:32.444Z,1.76
2023-03-12T06:08:34.162Z,1.80
2023-03-12T06:10:37.896Z,1.74
2023-03-12T06:12:39.494Z,1.60
2023-03-12T06:14:41.165Z,1.53
2023-03-12T06:16:42.617Z,1.77
2023-03-12T06:18:44.200Z,1.92
2023-03-12T06:20:45.844Z,1.74
2023-03-12T06:22:47.260Z,1.50
2023-03-12T06:24:48.842Z,1.76
2023-03-12T06:26:50.392Z,1.95
2023-03-12T06:28:52.783Z,2.10
2023-03-12T06:30:55.628Z,2.38
2023-03-12T06:32:57.227Z,2.21
2023-03-12T06:34:58.947Z,1.95
2023-03-12T06:37:00.961Z,1.88
2023-03-12T06:39:03.398Z,1.93
2023-03-12T06:41:11.108Z,1.91
2023-03-12T06:43:12.788Z,1.57
2023-03-12T06:45:14.419Z,2.51
2023-03-12T06:47:17.672Z,2.44
2023-03-12T06:49:19.379Z,2.18
2023-03-12T06:51:20.933Z,2.98
2023-03-12T06:53:23.172Z,3.07
2023-03-12T06:55:24.671Z,3.79
2023-03-12T06:57:26.234Z,3.54
2023-03-12T06:59:27.706Z,3.48
2023-03-12T07:01:29.285Z,3.72
2023-03-12T07:03:31.074Z,3.84
2023-03-12T07:05:33.030Z,3.28
2023-03-12T07:07:34.605Z,3.70
2023-03-12T07:09:36.248Z,3.74
2023-03-12T07:11:37.663Z,3.75
2023-03-12T07:13:39.454Z,3.55
2023-03-12T07:15:41.154Z,2.83
2023-03-12T07:17:42.621Z,3.16
2023-03-12T07:19:44.194Z,2.53
2023-03-12T07:21:45.760Z,2.57
2023-03-12T07:23:47.168Z,2.46
2023-03-12T07:25:49.202Z,2.23
2023-03-12T07:27:50.911Z,2.57
2023-03-12T07:29:52.309Z,2.38
2023-03-12T07:31:53.977Z,3.17
2023-03-12T07:33:55.828Z,3.22
2023-03-12T07:35:57.448Z,3.29
2023-03-12T07:38:00.362Z,3.02
2023-03-12T07:40:02.283Z,3.55
2023-03-12T07:42:03.991Z,3.04
2023-03-12T07:44:06.148Z,3.33
2023-03-12T07:46:07.891Z,3.78
2023-03-12T07:48:09.374Z,3.29
2023-03-12T07:50:11.446Z,3.57
2023-03-12T07:52:13.187Z,3.82
2023-03-12T07:54:14.678Z,3.33
2023-03-12T07:56:16.412Z,3.30
2023-03-12T07:58:18.362Z,2.94
2023-03-12T08:00:20.198Z,2.99
2023-03-12T08:02:22.099Z,3.21
2023-03-12T08:04:23.807Z,3.22
2023-03-12T08:06:25.550Z,2.91
2023-03-12T08:08:27.409Z,2.62
2023-03-12T08:10:29.130Z,2.63
2023-03-12T08:12:30.645Z,2.74
2023-03-12T08:14:32.330Z,2.95
2023-03-12T08:16:34.009Z,3.04
2023-03-12T08:18:35.461Z,2.65
2023-03-12T08:20:36.984Z,3.12
2023-03-12T08:22:40.017Z,2.93
2023-03-12T08:24:41.474Z,3.25
2023-03-12T08:26:42.996Z,3.71
2023-03-12T08:28:44.609Z,3.70
2023-03-12T08:30:52.334Z,3.98
2023-03-12T08:32:53.827Z,3.74
2023-03-12T08:34:55.383Z,3.29
2023-03-12T08:36:56.807Z,3.02
2023-03-12T08:38:58.256Z,3.08
2023-03-12T08:41:01.199Z,2.80
2023-03-12T08:43:02.921Z,3.05
2023-03-12T08:45:04.561Z,3.04
2023-03-12T08:47:06.152Z,3.36
2023-03-12T08:49:07.569Z,3.58
2023-03-12T08:51:09.086Z,3.49
2023-03-12T08:53:10.605Z,3.59
2023-03-12T08:55:12.330Z,3.70
2023-03-12T08:57:13.824Z,3.70
2023-03-12T08:59:15.373Z,3.67
2023-03-12T09:01:16.842Z,3.86
2023-03-12T09:03:18.783Z,3.54
2023-03-12T09:05:20.606Z,3.46
2023-03-12T09:07:22.060Z,3.73
2023-03-12T09:09:23.566Z,4.04
2023-03-12T09:11:25.120Z,3.48
2023-03-12T09:13:36.652Z,3.24
2023-03-12T09:15:48.631Z,3.32
2023-03-12T09:17:50.171Z,3.76
2023-03-12T09:19:51.574Z,3.36
2023-03-12T09:21:53.164Z,3.12
2023-03-12T09:23:54.822Z,3.34
2023-03-12T09:25:56.623Z,3.33
2023-03-12T09:27:58.311Z,3.06
2023-03-12T09:30:01.271Z,2.81
2023-03-12T09:32:05.608Z,3.20
2023-03-12T09:34:07.416Z,3.56
2023-03-12T09:36:09.217Z,3.79
2023-03-12T09:38:16.621Z,4.09
2023-03-12T09:40:22.069Z,3.76
2023-03-12T09:42:37.406Z,3.96
2023-03-12T09:44:44.378Z,4.21
2023-03-12T09:46:54.379Z,4.58
2023-03-12T09:49:02.577Z,4.68
2023-03-12T09:51:20.265Z,4.91
2023-03-12T09:53:31.318Z,5.05
2023-03-12T09:55:38.159Z,5.63
2023-03-12T09:57:39.624Z,5.35
2023-03-12T09:59:41.290Z,4.71
2023-03-12T10:02:34.968Z,5.25
2023-03-12T10:04:58.573Z,4.93
2023-03-12T10:07:06.088Z,3.94
2023-03-12T10:09:32.537Z,3.69
2023-03-12T10:11:39.830Z,4.43
2023-03-12T10:13:55.384Z,5.08
2023-03-12T10:16:22.326Z,4.68
2023-03-12T10:18:55.178Z,4.75
2023-03-12T10:21:13.361Z,4.20
2023-03-12T10:23:32.706Z,4.37
2023-03-12T10:25:56.044Z,4.37
2023-03-12T10:28:04.536Z,4.14
2023-03-12T10:30:25.014Z,4.24
2023-03-12T10:32:49.417Z,4.14
2023-03-12T10:34:59.897Z,4.85
2023-03-12T10:37:12.852Z,4.30
2023-03-12T10:39:17.433Z,4.14
2023-03-12T10:41:22.645Z,3.65
2023-03-12T10:43:24.255Z,3.53
2023-03-12T10:45:38.354Z,3.44
2023-03-12T10:47:42.070Z,3.22
2023-03-12T10:49:43.467Z,3.23
2023-03-12T10:52:15.092Z,3.37
2023-03-12T10:54:42.222Z,3.58
2023-03-12T10:56:50.199Z,3.70
2023-03-12T10:58:53.365Z,3.89
2023-03-12T11:00:58.019Z,3.65
2023-03-12T11:03:05.909Z,3.63
2023-03-12T11:05:19.806Z,4.22
2023-03-12T11:07:36.592Z,4.20
2023-03-12T11:09:38.312Z,4.40
2023-03-12T11:11:40.216Z,4.42
2023-03-12T11:13:42.001Z,4.40
2023-03-12T11:15:43.788Z,4.07
2023-03-12T11:17:45.257Z,3.97
2023-03-12T11:19:46.699Z,3.93
2023-03-12T11:22:08.557Z,4.11
2023-03-12T11:24:13.084Z,3.97
2023-03-12T11:26:16.623Z,4.07
2023-03-12T11:28:23.879Z,3.83
2023-03-12T11:30:40.257Z,3.67
2023-03-12T11:32:46.260Z,3.63
2023-03-12T11:34:48.469Z,3.94
2023-03-12T11:37:08.443Z,4.45
2023-03-12T11:39:23.640Z,4.38
2023-03-12T11:41:31.041Z,4.33
2023-03-12T11:43:43.998Z,4.04
2023-03-12T11:46:15.995Z,4.11
2023-03-12T11:48:20.461Z,4.27
2023-03-12T11:50:40.761Z,4.58
2023-03-12T11:53:02.830Z,4.94
2023-03-12T11:55:17.028Z,5.29
2023-03-12T11:57:32.261Z,4.95
2023-03-12T11:59:45.623Z,4.87
2023-03-12T12:02:01.306Z,4.25
2023-03-12T12:04:36.317Z,3.99
2023-03-12T12:07:16.421Z,4.03
2023-03-12T12:09:35.650Z,4.21
2023-03-12T12:11:52.419Z,4.48
2023-03-12T12:14:10.352Z,4.44
2023-03-12T12:16:42.849Z,4.87
2023-03-12T12:18:53.597Z,4.97
2023-03-12T12:21:26.120Z,5.32
2023-03-12T12:23:41.082Z,5.52
2023-03-12T12:26:02.307Z,4.87
2023-03-12T12:28:23.041Z,4.72
2023-03-12T12:30:51.394Z,4.70
2023-03-12T12:33:16.963Z,4.40
2023-03-12T12:35:30.422Z,4.68
2023-03-12T12:37:48.649Z,5.35
2023-03-12T12:40:13.507Z,5.59
2023-03-12T12:42:29.829Z,5.11
2023-03-12T12:44:35.942Z,5.33
2023-03-12T12:46:46.730Z,5.54
2023-03-12T12:48:59.321Z,5.49
2023-03-12T12:51:02.665Z,5.15
2023-03-12T12:53:30.206Z,4.89
2023-03-12T12:55:40.467Z,4.54
2023-03-12T12:57:49.209Z,4.95
2023-03-12T13:00:14.533Z,4.59
2023-03-12T13:02:22.692Z,4.48
2023-03-12T13:04:33.630Z,4.49
2023-03-12T13:06:59.170Z,4.54
2023-03-12T13:09:13.860Z,5.06
2023-03-12T13:11:20.052Z,5.29
2023-03-12T13:13:25.607Z,5.05
2023-03-12T13:15:31.817Z,4.91
2023-03-12T13:17:35.975Z,5.32
2023-03-12T13:19:43.186Z,4.78
2023-03-12T13:21:53.928Z,4.82
2023-03-12T13:24:09.357Z,5.00
2023-03-12T13:26:28.915Z,4.96
2023-03-12T13:28:34.678Z,4.65
2023-03-12T13:30:36.147Z,4.63
2023-03-12T13:32:59.141Z,4.52
2023-03-12T13:35:08.186Z,4.79
2023-03-12T13:37:46.515Z,4.82
2023-03-12T13:39:47.950Z,4.84
2023-03-12T13:41:54.414Z,4.82
2023-03-12T13:43:56.192Z,4.84
2023-03-12T13:46:06.835Z,5.03
2023-03-12T13:48:16.455Z,4.78
2023-03-12T13:50:18.034Z,4.92
2023-03-12T13:52:28.650Z,4.95
2023-03-12T13:54:33.870Z,5.20
2023-03-12T13:56:35.523Z,5.21
2023-03-12T13:59:00.063Z,4.96
2023-03-12T14:01:05.516Z,5.00
2023-03-12T14:03:26.271Z,5.17
2023-03-12T14:05:28.591Z,4.95
2023-03-12T14:07:54.592Z,4.89
2023-03-12T14:10:06.562Z,5.22
2023-03-12T14:12:22.048Z,5.28
2023-03-12T14:14:37.312Z,5.08
2023-03-12T14:16:46.653Z,5.18
2023-03-12T14:18:49.609Z,5.26
2023-03-12T14:20:58.364Z,4.98
2023-03-12T14:23:08.889Z,5.33
2023-03-12T14:25:21.916Z,5.08
2023-03-12T14:27:31.434Z,4.91
2023-03-12T14:29:43.785Z,5.05
2023-03-12T14:31:47.225Z,5.26
2023-03-12T14:34:12.528Z,5.47
2023-03-12T14:36:18.359Z,5.20
2023-03-12T14:38:49.963Z,5.12
2023-03-12T14:41:04.017Z,5.10
2023-03-12T14:43:26.099Z,5.23
2023-03-12T14:45:27.666Z,4.98
2023-03-12T14:47:29.342Z,4.89
2023-03-12T14:49:31.771Z,4.93
2023-03-12T14:51:36.172Z,5.07
2023-03-12T14:53:38.774Z,5.04
2023-03-12T14:55:40.318Z,5.07
2023-03-12T14:57:42.106Z,4.96
2023-03-12T14:59:53.031Z,5.01
2023-03-12T15:02:17.877Z,4.95
2023-03-12T15:04:22.330Z,4.79
2023-03-12T15:06:47.159Z,4.91
2023-03-12T15:08:48.624Z,4.94
2023-03-12T15:10:52.600Z,5.12
2023-03-12T15:12:56.823Z,4.92
2023-03-12T15:15:05.983Z,5.04
2023-03-12T15:17:08.150Z,5.19
2023-03-12T15:19:13.956Z,5.25
2023-03-12T15:21:16.664Z,5.02
2023-03-12T15:23:19.329Z,5.18
2023-03-12T15:25:23.647Z,5.16
2023-03-12T15:27:25.270Z,5.20
2023-03-12T15:29:29.094Z,5.38
2023-03-12T15:31:48.994Z,5.37
2023-03-12T15:34:11.499Z,5.23
2023-03-12T15:36:15.870Z,5.14
2023-03-12T15:38:17.409Z,5.01
2023-03-12T15:40:29.916Z,4.81
2023-03-12T15:42:38.536Z,4.95
2023-03-12T15:44:46.686Z,4.89
2023-03-12T15:46:51.617Z,4.82
2023-03-12T15:48:56.408Z,4.94
2023-03-12T15:50:58.870Z,5.17
2023-03-12T15:53:04.843Z,5.36
2023-03-12T15:55:09.154Z,5.51
2023-03-12T15:57:21.465Z,5.28
2023-03-12T15:59:27.972Z,5.26
2023-03-12T16:01:29.552Z,5.28
2023-03-12T16:03:31.343Z,5.06
2023-03-12T16:05:36.098Z,4.93
2023-03-12T16:07:38.089Z,4.85
2023-03-12T16:09:39.664Z,4.84
2023-03-12T16:11:41.825Z,4.70
2023-03-12T16:13:45.614Z,4.72
2023-03-12T16:15:48.167Z,4.55
2023-03-12T16:17:49.891Z,4.54
2023-03-12T16:19:51.315Z,4.39
2023-03-12T16:21:52.916Z,4.35
2023-03-12T16:23:54.499Z,4.36
2023-03-12T16:25:56.056Z,4.24
2023-03-12T16:28:00.940Z,4.20
2023-03-12T16:30:02.599Z,4.38
2023-03-12T16:32:12.143Z,4.31
2023-03-12T16:34:13.637Z,4.13
2023-03-12T16:36:16.802Z,4.12
2023-03-12T16:38:18.340Z,4.24
2023-03-12T16:40:32.462Z,4.26
2023-03-12T16:42:35.094Z,4.46
2023-03-12T16:44:36.522Z,4.56
2023-03-12T16:46:38.436Z,4.59
2023-03-12T16:48:40.059Z,4.56
2023-03-12T16:50:41.489Z,4.63
2023-03-12T16:52:43.738Z,4.59
2023-03-12T16:54:45.466Z,4.54
2023-03-12T16:56:48.368Z,4.35
2023-03-12T16:58:50.746Z,4.45
2023-03-12T17:00:53.635Z,4.44
2023-03-12T17:02:55.190Z,4.44
2023-03-12T17:04:56.802Z,4.43
2023-03-12T17:06:58.773Z,4.38
2023-03-12T17:09:00.254Z,4.26
2023-03-12T17:11:01.859Z,4.26
2023-03-12T17:13:03.472Z,4.07
2023-03-12T17:15:11.643Z,3.89
2023-03-12T17:17:13.127Z,4.13
2023-03-12T17:19:15.031Z,4.11
2023-03-12T17:21:18.462Z,4.01
2023-03-12T17:23:20.243Z,4.07
2023-03-12T17:25:30.279Z,3.87
2023-03-12T17:27:32.046Z,3.79
2023-03-12T17:29:33.687Z,3.87
2023-03-12T17:31:35.303Z,3.84
2023-03-12T17:33:36.896Z,3.85
2023-03-12T17:35:38.858Z,3.72
2023-03-12T17:37:40.367Z,3.50
2023-03-12T17:39:41.789Z,3.45
2023-03-12T17:41:43.297Z,3.28
2023-03-12T17:43:44.728Z,3.19
2023-03-12T17:45:46.361Z,3.11
2023-03-12T17:47:48.032Z,2.94
2023-03-12T17:49:49.582Z,2.94
2023-03-12T17:51:50.978Z,2.88
2023-03-12T17:53:52.596Z,2.96
2023-03-12T17:55:54.449Z,2.75
2023-03-12T17:57:55.870Z,2.73
2023-03-12T17:59:57.362Z,2.70
2023-03-12T18:01:58.832Z,2.87
2023-03-12T18:04:00.256Z,3.11
2023-03-12T18:06:02.582Z,3.25
2023-03-12T18:08:04.262Z,2.96
2023-03-12T18:10:07.932Z,2.80
2023-03-12T18:12:09.436Z,2.83
2023-03-12T18:14:10.932Z,2.63
2023-03-12T18:16:12.433Z,2.64
2023-03-12T18:18:13.977Z,2.64
2023-03-12T18:20:21.299Z,2.56
2023-03-12T18:22:27.347Z,2.76
2023-03-12T18:24:28.932Z,2.66
2023-03-12T18:26:30.424Z,2.73
2023-03-12T18:28:31.896Z,2.83
2023-03-12T18:30:33.439Z,2.77
2023-03-12T18:32:34.954Z,2.71
2023-03-12T18:34:36.446Z,2.62
2023-03-12T18:36:37.983Z,2.62
2023-03-12T18:38:39.665Z,2.50
2023-03-12T18:40:41.070Z,2.56
2023-03-12T18:42:42.661Z,2.50
2023-03-12T18:44:44.151Z,2.51
2023-03-12T18:46:45.593Z,2.44
2023-03-12T18:48:47.077Z,2.49
2023-03-12T18:50:50.152Z,2.46
2023-03-12T18:52:51.644Z,2.57
2023-03-12T18:54:53.119Z,2.59
2023-03-12T18:56:54.691Z,2.65
2023-03-12T18:58:58.670Z,2.96
2023-03-12T19:01:00.357Z,2.92
2023-03-12T19:03:02.042Z,2.99
2023-03-12T19:05:03.628Z,3.26
2023-03-12T19:07:05.589Z,3.36
2023-03-12T19:09:07.062Z,3.54
2023-03-12T19:11:11.257Z,3.68
2023-03-12T19:13:12.788Z,3.61
2023-03-12T19:15:14.324Z,3.65
2023-03-12T19:17:15.793Z,3.68
2023-03-12T19:19:17.300Z,3.75
2023-03-12T19:21:19.113Z,3.61
2023-03-12T19:23:21.044Z,3.69
2023-03-12T19:25:22.556Z,3.65
2023-03-12T19:27:23.971Z,3.58
2023-03-12T19:29:25.664Z,3.51
2023-03-12T19:31:27.208Z,3.49
2023-03-12T19:33:28.729Z,3.52
2023-03-12T19:35:30.230Z,3.38
2023-03-12T19:37:31.802Z,3.31
2023-03-12T19:39:33.288Z,3.37
2023-03-12T19:41:35.128Z,3.42
2023-03-12T19:43:37.335Z,3.48
2023-03-12T19:45:38.941Z,3.37
2023-03-12T19:47:40.863Z,3.38
2023-03-12T19:49:42.813Z,3.37
2023-03-12T19:51:44.367Z,3.28
2023-03-12T19:53:45.799Z,3.32
2023-03-12T19:55:49.042Z,3.30
2023-03-12T19:57:50.685Z,2.91
2023-03-12T19:59:52.135Z,2.63
2023-03-12T20:01:53.556Z,2.71
2023-03-12T20:03:55.194Z,2.66
2023-03-12T20:05:56.931Z,2.60
2023-03-12T20:07:58.578Z,2.62
2023-03-12T20:10:00.217Z,2.64
2023-03-12T20:12:01.711Z,2.66
2023-03-12T20:14:04.763Z,2.54
2023-03-12T20:16:06.947Z,2.45
2023-03-12T20:18:08.444Z,2.67
2023-03-12T20:20:11.100Z,2.84
2023-03-12T20:22:12.769Z,2.77
2023-03-12T20:24:14.220Z,2.80
2023-03-12T20:26:16.009Z,2.92
2023-03-12T20:28:17.910Z,2.82
2023-03-12T20:30:19.317Z,2.71
2023-03-12T20:32:20.840Z,2.70
2023-03-12T20:34:22.616Z,2.51
2023-03-12T20:36:24.492Z,2.85
2023-03-12T20:38:25.994Z,2.95
2023-03-12T20:40:28.051Z,2.98
2023-03-12T20:42:29.444Z,2.99
2023-03-12T20:44:31.039Z,2.82
2023-03-12T20:46:32.614Z,2.65
2023-03-12T20:48:34.326Z,2.79
2023-03-12T20:50:37.913Z,2.55
2023-03-12T20:52:39.305Z,2.77
2023-03-12T20:54:40.898Z,2.83
2023-03-12T20:56:42.423Z,2.84
2023-03-12T20:58:43.983Z,2.97
2023-03-12T21:00:45.370Z,3.10
2023-03-12T21:02:47.200Z,3.10
2023-03-12T21:04:48.744Z,3.22
2023-03-12T21:06:50.176Z,3.27
2023-03-12T21:08:51.667Z,3.28
2023-03-12T21:10:53.549Z,3.34
2023-03-12T21:12:54.955Z,3.36
2023-03-12T21:14:56.468Z,3.31
2023-03-12T21:16:58.032Z,3.27
2023-03-12T21:18:59.557Z,3.29
2023-03-12T21:21:02.518Z,3.24
2023-03-12T21:23:04.720Z,3.23
2023-03-12T21:25:07.032Z,3.10
2023-03-12T21:27:08.517Z,3.11
2023-03-12T21:29:09.955Z,3.21
2023-03-12T21:31:14.421Z,3.19
2023-03-12T21:33:15.943Z,3.26
2023-03-12T21:35:17.568Z,3.21
2023-03-12T21:37:19.227Z,3.16
2023-03-12T21:39:20.718Z,3.20
2023-03-12T21:41:22.385Z,3.17
2023-03-12T21:43:23.889Z,3.09
2023-03-12T21:45:25.476Z,3.16
2023-03-12T21:47:27.051Z,3.07
2023-03-12T21:49:28.499Z,2.88
2023-03-12T21:51:30.244Z,2.81
2023-03-12T21:53:31.828Z,2.78
2023-03-12T21:55:33.277Z,2.80
2023-03-12T21:57:35.191Z,2.94
2023-03-12T21:59:36.746Z,2.92
2023-03-12T22:01:38.373Z,2.99
2023-03-12T22:03:41.813Z,2.92
2023-03-12T22:05:49.658Z,3.02
2023-03-12T22:07:51.062Z,3.12
2023-03-12T22:09:52.580Z,3.09
2023-03-12T22:11:54.102Z,3.26
2023-03-12T22:13:55.502Z,3.20
2023-03-12T22:15:59.493Z,3.16
2023-03-12T22:18:01.027Z,2.97
2023-03-12T22:20:02.458Z,2.73
2023-03-12T22:22:03.994Z,3.03
2023-03-12T22:24:05.682Z,3.12
2023-03-12T22:26:07.158Z,3.09
2023-03-12T22:28:08.590Z,2.90
2023-03-12T22:30:10.988Z,2.86
2023-03-12T22:32:12.403Z,2.98
2023-03-12T22:34:13.833Z,2.95
2023-03-12T22:36:16.248Z,2.95
2023-03-12T22:38:17.769Z,3.29
2023-03-12T22:40:19.519Z,3.28
2023-03-12T22:42:21.015Z,3.29
2023-03-12T22:44:22.448Z,3.20
2023-03-12T22:46:25.601Z,3.17
2023-03-12T22:48:27.132Z,2.95
2023-03-12T22:50:28.742Z,2.76
2023-03-12T22:52:30.267Z,3.04
2023-03-12T22:54:31.841Z,3.13
2023-03-12T22:56:33.308Z,3.29
2023-03-12T22:58:35.321Z,3.43
2023-03-12T23:00:37.323Z,3.58
2023-03-12T23:02:39.110Z,3.59
2023-03-12T23:04:40.734Z,3.72
2023-03-12T23:06:42.254Z,3.73
2023-03-12T23:08:46.197Z,3.78
2023-03-12T23:11:08.599Z,3.55
2023-03-12T23:13:10.011Z,3.64
2023-03-12T23:15:11.576Z,3.50
2023-03-12T23:17:12.982Z,3.46
2023-03-12T23:19:14.490Z,3.49
2023-03-12T23:21:21.765Z,3.62
2023-03-12T23:23:23.187Z,3.58
2023-03-12T23:25:24.602Z,3.77
2023-03-12T23:27:26.118Z,3.82
2023-03-12T23:29:29.816Z,3.68
2023-03-12T23:31:31.396Z,3.31
2023-03-12T23:33:34.132Z,3.37
2023-03-12T23:35:35.741Z,3.26
2023-03-12T23:37:37.402Z,3.21
2023-03-12T23:39:53.528Z,3.19
2023-03-12T23:41:55.898Z,3.47
2023-03-12T23:43:58.577Z,3.34
2023-03-12T23:46:01.834Z,3.41
2023-03-12T23:48:03.655Z,3.35
2023-03-12T23:50:05.887Z,3.45
2023-03-12T23:52:07.290Z,3.52
2023-03-12T23:54:08.932Z,3.67
2023-03-12T23:56:22.734Z,3.60
2023-03-12T23:58:24.837Z,3.54
